DAAS

Ain Arnat Airport

Sétif, Algeria
METAR DAAS 152000Z 08004KT 9999 FEW030 32/05 Q1021
Observed Flight Rules
Jul-15 @ 20:00 UTC (an hour ago) Visual Flight Rules
Wind Visibility Clouds
80° at 4 knots 10,000+ meters
  • Few at 3,000' AGL
Temperatures Readings
Current 32°C / 90°F
Dewpoint 5°C / 41°F
Humidity 18%
Altimeter 30.15" Hg
Pressure 1021 hPa
Elevation 1038
METAR DAAS 152000Z 08004KT 9999 FEW030 32/05 Q1021
Observed Flight Rules
Jul-15 @ 20:00 UTC
(an hour ago)
VFR
Wind Visibility
80° at 4 knots 10,000+ meters
Clouds
  • Few at 3,000' AGL
Temperature Dewpoint
32°C / 90°F 5°C / 41°F
Humidity Altimeter Pressure
18% 30.15" Hg 1021 hPa